Time;durP1;ratioP1;P1;durP2;ratioP2;P2;SDS_P1;SDS_P2;PMS_P1;PMS_P2;Temp;Humidity;BMP_temperature;BMP_pressure;BME280_temperature;BME280_humidity;BME280_pressure;Samples;Min_cycle;Max_cycle;Signal;HPM_P1;HPM_P2
2021/12/08 00:02:17;;;;;;;12.30;5.03;;;3.20;99.90;;;;;;5052030;28;20051;-73
2021/12/08 00:04:43;;;;;;;10.00;4.90;;;3.10;99.90;;;;;;5052626;28;20059;-74
2021/12/08 00:07:09;;;;;;;10.70;4.70;;;3.20;99.90;;;;;;5051997;28;20416;-74
2021/12/08 00:14:53;;;;;;;13.20;4.70;;;3.20;99.90;;;;;;5051948;28;20128;-74
2021/12/08 00:17:18;;;;;;;12.32;4.65;;;3.20;99.90;;;;;;5052015;28;20131;-74
2021/12/08 00:19:44;;;;;;;11.77;4.28;;;3.10;99.90;;;;;;5035004;28;20490;-74
2021/12/08 00:22:10;;;;;;;11.15;5.47;;;3.20;99.90;;;;;;5051879;28;20041;-74
2021/12/08 00:24:36;;;;;;;9.30;4.30;;;3.20;99.90;;;;;;5051843;28;20068;-73
2021/12/08 00:27:02;;;;;;;10.73;4.75;;;3.20;99.90;;;;;;5051032;28;20183;-72
2021/12/08 00:29:28;;;;;;;12.27;4.53;;;3.20;99.90;;;;;;5051475;28;20041;-74
2021/12/08 00:31:53;;;;;;;12.10;4.95;;;3.20;99.90;;;;;;5035292;28;20041;-74
2021/12/08 00:34:19;;;;;;;10.02;4.63;;;3.20;99.90;;;;;;5035600;28;20044;-73
2021/12/08 00:36:49;;;;;;;13.35;4.88;;;3.30;99.90;;;;;;5051298;28;20403;-75
2021/12/08 00:39:14;;;;;;;13.82;4.40;;;3.30;99.90;;;;;;5053317;28;20044;-74
2021/12/08 00:41:41;;;;;;;13.45;5.03;;;3.20;99.90;;;;;;5038430;28;20041;-74
2021/12/08 00:44:07;;;;;;;11.88;4.68;;;3.30;99.90;;;;;;5038750;28;20033;-73
2021/12/08 00:46:34;;;;;;;12.50;4.97;;;3.30;99.90;;;;;;5055494;28;20080;-75
2021/12/08 00:48:59;;;;;;;15.35;4.88;;;3.30;99.90;;;;;;5038487;28;20048;-75
2021/12/08 00:51:25;;;;;;;9.32;4.78;;;3.30;99.90;;;;;;5055016;28;20045;-74
2021/12/08 00:53:51;;;;;;;14.63;5.00;;;3.30;99.90;;;;;;5038453;28;20132;-74
2021/12/08 00:56:17;;;;;;;9.20;4.88;;;3.30;99.90;;;;;;5054320;28;20045;-75
2021/12/08 00:58:44;;;;;;;11.68;4.70;;;3.30;99.90;;;;;;5055668;28;20041;-74
2021/12/08 01:01:09;;;;;;;11.48;4.93;;;3.40;99.90;;;;;;5054840;28;20510;-74
2021/12/08 01:03:36;;;;;;;12.65;4.82;;;3.40;99.90;;;;;;5055040;28;20209;-74
2021/12/08 01:06:04;;;;;;;11.80;4.55;;;3.40;99.90;;;;;;5038510;28;20139;-75
2021/12/08 01:08:32;;;;;;;11.10;4.93;;;3.40;99.90;;;;;;5054805;28;20053;-74
2021/12/08 01:11:03;;;;;;;11.55;4.95;;;3.40;99.90;;;;;;5038021;28;20403;-74
2021/12/08 01:13:29;;;;;;;11.10;4.80;;;3.40;99.90;;;;;;5054294;28;20079;-74
2021/12/08 01:15:56;;;;;;;10.50;4.88;;;3.50;99.90;;;;;;5037978;28;20099;-75
2021/12/08 01:18:23;;;;;;;11.77;4.57;;;3.50;99.90;;;;;;5038028;28;20086;-74
2021/12/08 01:20:51;;;;;;;15.02;4.70;;;3.50;99.90;;;;;;5054437;28;20086;-74
2021/12/08 01:23:18;;;;;;;10.88;4.90;;;3.50;99.90;;;;;;5037698;28;20042;-74
2021/12/08 01:25:44;;;;;;;13.68;4.75;;;3.50;99.90;;;;;;5054301;28;20041;-74
2021/12/08 01:28:10;;;;;;;14.35;5.05;;;3.50;99.90;;;;;;5053677;28;20045;-74
2021/12/08 01:30:36;;;;;;;11.70;4.82;;;3.50;99.90;;;;;;5054377;28;20052;-74
2021/12/08 01:33:02;;;;;;;11.55;4.88;;;3.60;99.90;;;;;;5054181;28;20056;-74
2021/12/08 01:35:27;;;;;;;9.48;4.57;;;3.60;99.90;;;;;;5054292;28;20041;-73
2021/12/08 01:37:53;;;;;;;7.90;4.43;;;3.60;99.90;;;;;;5037331;28;20033;-75
2021/12/08 01:40:20;;;;;;;7.35;3.92;;;3.60;99.90;;;;;;5054663;28;20037;-75
2021/12/08 01:42:50;;;;;;;9.00;4.32;;;3.60;99.90;;;;;;5054656;28;20398;-74
2021/12/08 01:48:10;;;;;;;8.85;4.40;;;3.60;99.90;;;;;;5053942;28;20479;-75
2021/12/08 01:50:36;;;;;;;7.30;4.40;;;3.60;99.90;;;;;;5053541;28;20364;-75
2021/12/08 01:53:05;;;;;;;13.52;4.25;;;3.60;99.90;;;;;;5054141;28;20114;-75
2021/12/08 01:55:31;;;;;;;7.70;4.15;;;3.60;99.90;;;;;;5054404;28;20041;-74
2021/12/08 01:57:57;;;;;;;9.55;4.18;;;3.60;99.90;;;;;;5053192;28;20037;-75
2021/12/08 02:00:27;;;;;;;7.93;4.50;;;3.60;99.90;;;;;;5053520;28;20041;-74
2021/12/08 02:02:53;;;;;;;11.10;4.30;;;3.60;99.90;;;;;;5053461;28;20131;-74
2021/12/08 02:05:19;;;;;;;10.45;4.10;;;3.60;99.90;;;;;;5053512;28;20137;-75
2021/12/08 02:07:45;;;;;;;10.85;4.45;;;3.60;99.90;;;;;;5053462;28;20368;-74
2021/12/08 02:10:12;;;;;;;9.02;4.43;;;3.60;99.90;;;;;;5054049;28;20040;-75
2021/12/08 02:12:40;;;;;;;6.95;3.80;;;3.60;99.90;;;;;;5053670;28;20077;-74
2021/12/08 02:15:10;;;;;;;13.30;4.70;;;3.60;99.90;;;;;;5053560;28;20041;-74
2021/12/08 02:17:37;;;;;;;10.38;4.38;;;3.60;99.90;;;;;;5052649;28;20522;-75
2021/12/08 02:20:08;;;;;;;8.55;4.47;;;3.60;99.90;;;;;;5036075;28;20478;-74
2021/12/08 02:22:33;;;;;;;9.30;4.22;;;3.60;99.90;;;;;;5053423;28;20041;-74
2021/12/08 02:24:59;;;;;;;12.75;4.63;;;3.60;99.90;;;;;;5053621;28;20166;-74
2021/12/08 02:27:25;;;;;;;10.70;4.35;;;3.60;99.90;;;;;;5053220;28;20040;-75
2021/12/08 02:30:00;;;;;;;8.38;3.63;;;3.60;99.90;;;;;;5036478;28;20041;-75
2021/12/08 02:46:42;;;;;;;10.82;4.60;;;3.60;99.90;;;;;;5036169;28;20391;-75
2021/12/08 02:49:02;;;;;;;9.77;4.65;;;3.50;99.90;;;;;;5052406;28;20062;-74
2021/12/08 02:51:27;;;;;;;8.30;4.65;;;3.60;99.90;;;;;;5053039;28;20037;-75
2021/12/08 02:53:53;;;;;;;9.73;5.10;;;3.60;99.90;;;;;;5053174;28;20045;-73
2021/12/08 02:56:19;;;;;;;9.15;4.75;;;3.60;99.90;;;;;;5052894;28;20048;-75
2021/12/08 02:58:45;;;;;;;11.75;5.28;;;3.60;99.90;;;;;;5052907;28;20043;-74
2021/12/08 03:01:12;;;;;;;11.02;5.50;;;3.60;99.90;;;;;;5051174;28;20041;-74
2021/12/08 03:03:39;;;;;;;7.70;5.22;;;3.60;99.90;;;;;;5052365;28;20084;-75
2021/12/08 03:06:05;;;;;;;9.52;5.20;;;3.70;99.90;;;;;;5052711;28;20491;-74
2021/12/08 03:08:31;;;;;;;10.73;6.05;;;3.70;99.90;;;;;;5052318;28;20055;-73
2021/12/08 03:10:58;;;;;;;14.32;6.10;;;3.80;99.90;;;;;;5052517;28;20057;-74
2021/12/08 03:13:41;;;;;;;8.85;5.80;;;3.80;99.90;;;;;;5052516;28;20036;-75
2021/12/08 03:16:09;;;;;;;8.60;5.60;;;3.80;99.90;;;;;;5051606;28;20491;-74
2021/12/08 03:18:38;;;;;;;11.05;5.70;;;3.80;99.90;;;;;;5053107;28;20037;-74
2021/12/08 03:21:07;;;;;;;16.10;6.70;;;3.90;99.90;;;;;;5052731;28;20075;-75
2021/12/08 03:24:06;;;;;;;12.77;6.32;;;3.90;99.90;;;;;;5052709;28;20052;-74
2021/12/08 03:26:29;;;;;;;;;;;3.90;99.90;;;;;;5051018;28;20074;-75
2021/12/08 03:29:03;;;;;;;18.00;6.60;;;3.90;99.90;;;;;;5052487;28;19920;-75
2021/12/08 03:31:33;;;;;;;10.85;5.97;;;4.00;99.90;;;;;;5052282;28;20123;-74
2021/12/08 03:33:59;;;;;;;12.60;6.45;;;4.00;99.90;;;;;;5035440;28;20045;-74
2021/12/08 03:36:25;;;;;;;11.15;6.03;;;4.00;99.90;;;;;;5052293;28;20048;-74
2021/12/08 03:38:50;;;;;;;8.20;6.10;;;4.00;99.90;;;;;;5051884;28;20387;-74
2021/12/08 03:41:16;;;;;;;12.95;6.53;;;4.00;99.90;;;;;;5051974;28;20059;-74
2021/12/08 03:43:42;;;;;;;10.75;6.25;;;4.00;99.90;;;;;;5052056;28;20041;-74
2021/12/08 03:46:12;;;;;;;11.50;6.20;;;4.00;99.90;;;;;;5051315;28;20039;-74
2021/12/08 03:48:48;;;;;;;9.35;6.40;;;4.10;99.90;;;;;;5052506;28;20051;-75
2021/12/08 03:51:15;;;;;;;15.55;7.03;;;4.10;99.90;;;;;;5052017;28;20037;-74
2021/12/08 03:53:41;;;;;;;12.23;7.60;;;4.10;99.90;;;;;;5051420;28;20119;-75
2021/12/08 03:56:07;;;;;;;14.45;8.27;;;4.20;99.90;;;;;;5052353;28;20137;-74
2021/12/08 03:58:33;;;;;;;13.20;8.07;;;4.20;99.90;;;;;;5035621;28;20131;-75
2021/12/08 04:00:59;;;;;;;13.27;8.82;;;4.30;99.90;;;;;;5051984;28;20033;-74
2021/12/08 04:03:28;;;;;;;17.50;9.77;;;4.40;99.90;;;;;;5051854;28;20483;-74
2021/12/08 04:05:57;;;;;;;16.23;10.35;;;4.40;99.90;;;;;;5051587;28;20119;-75
2021/12/08 04:08:40;;;;;;;17.67;9.45;;;4.50;99.90;;;;;;5051702;28;20037;-74
2021/12/08 04:11:07;;;;;;;15.00;9.70;;;4.60;99.90;;;;;;5051564;28;20044;-75
2021/12/08 04:13:42;;;;;;;12.07;8.90;;;4.60;99.90;;;;;;5069433;28;20368;-75
2021/12/08 04:16:09;;;;;;;16.85;9.45;;;4.60;99.90;;;;;;5055636;28;20045;-74
2021/12/08 04:18:37;;;;;;;11.70;8.88;;;4.70;99.90;;;;;;5055299;28;20033;-74
2021/12/08 04:21:04;;;;;;;13.38;9.02;;;4.70;99.90;;;;;;5055686;28;20128;-74
2021/12/08 04:23:35;;;;;;;18.42;10.05;;;4.70;99.90;;;;;;5055854;28;20128;-74
2021/12/08 04:26:03;;;;;;;14.38;9.27;;;4.70;99.90;;;;;;5055637;28;20041;-75
2021/12/08 04:28:31;;;;;;;14.40;10.13;;;4.70;99.90;;;;;;5055316;28;20041;-74
2021/12/08 04:31:02;;;;;;;12.98;9.82;;;4.80;99.90;;;;;;5055392;28;20049;-75
2021/12/08 04:33:28;;;;;;;13.10;8.95;;;4.80;99.90;;;;;;5055241;28;20059;-74
2021/12/08 04:35:54;;;;;;;13.57;9.43;;;4.80;99.90;;;;;;5055719;28;20045;-75
2021/12/08 04:38:28;;;;;;;15.70;9.32;;;4.80;99.90;;;;;;5055453;28;20044;-74
2021/12/08 04:41:03;;;;;;;12.85;9.40;;;4.80;99.90;;;;;;5055310;28;20090;-74
2021/12/08 04:43:49;;;;;;;14.52;8.88;;;4.80;99.90;;;;;;5055076;28;20044;-74
2021/12/08 04:51:45;;;;;;;15.35;8.73;;;4.90;99.90;;;;;;5055013;28;20391;-74
2021/12/08 05:00:19;;;;;;;16.50;9.02;;;4.90;99.90;;;;;;5054783;28;20128;-75
2021/12/08 05:04:33;;;;;;;12.70;8.25;;;5.00;99.90;;;;;;5055149;28;20040;-74
2021/12/08 05:06:39;;;;;;;14.35;7.97;;;5.00;99.90;;;;;;5041816;28;20051;-74
2021/12/08 05:09:11;;;;;;;15.25;8.68;;;5.00;99.90;;;;;;5054936;28;20044;-73
2021/12/08 05:11:40;;;;;;;13.18;7.93;;;5.10;99.90;;;;;;5055215;28;20379;-73
2021/12/08 05:14:20;;;;;;;11.75;8.15;;;5.10;99.90;;;;;;5054857;28;20047;-74
2021/12/08 05:16:50;;;;;;;11.70;8.13;;;5.10;99.90;;;;;;5054470;28;20371;-74
2021/12/08 05:19:19;;;;;;;13.65;8.02;;;5.10;99.90;;;;;;5054074;28;20479;-74
2021/12/08 05:21:51;;;;;;;13.85;7.55;;;5.20;99.90;;;;;;5053427;28;20041;-74
2021/12/08 05:24:28;;;;;;;11.35;7.38;;;5.20;99.90;;;;;;5053640;28;20059;-74
2021/12/08 05:27:05;;;;;;;15.55;8.23;;;5.20;99.90;;;;;;5054481;28;20044;-73
2021/12/08 05:29:49;;;;;;;12.57;7.88;;;5.20;99.90;;;;;;5053997;28;20098;-73
2021/12/08 05:32:15;;;;;;;11.27;7.15;;;5.30;99.90;;;;;;5037670;28;20445;-74
2021/12/08 05:34:43;;;;;;;14.25;7.63;;;5.30;99.90;;;;;;5054339;28;20174;-75
2021/12/08 05:37:12;;;;;;;14.27;8.27;;;5.30;99.90;;;;;;5054267;28;20502;-73
2021/12/08 05:39:39;;;;;;;11.20;8.13;;;5.30;99.90;;;;;;5054080;28;20080;-75
2021/12/08 05:42:12;;;;;;;15.77;7.50;;;5.30;99.90;;;;;;5053950;28;20052;-74
2021/12/08 05:44:40;;;;;;;12.85;7.13;;;5.30;99.90;;;;;;5054176;28;20505;-75
2021/12/08 05:47:09;;;;;;;11.27;6.80;;;5.40;99.90;;;;;;5054186;28;20395;-74
2021/12/08 05:49:35;;;;;;;13.50;6.82;;;5.30;99.90;;;;;;5054514;28;20136;-73
2021/12/08 05:52:02;;;;;;;13.15;6.10;;;5.30;99.90;;;;;;5053481;28;20116;-74
2021/12/08 05:54:34;;;;;;;13.20;6.50;;;5.30;99.90;;;;;;5052939;28;20040;-74
2021/12/08 05:57:08;;;;;;;9.82;5.95;;;5.30;99.90;;;;;;5037147;28;20045;-74
2021/12/08 05:59:34;;;;;;;10.65;5.50;;;5.30;99.90;;;;;;5037075;28;20127;-74
2021/12/08 06:02:08;;;;;;;9.98;5.63;;;5.30;99.90;;;;;;5054296;28;20099;-74
2021/12/08 06:04:35;;;;;;;8.13;5.75;;;5.30;99.90;;;;;;5053668;28;20044;-73
2021/12/08 06:07:01;;;;;;;9.68;5.97;;;5.20;99.90;;;;;;5036804;28;20127;-75
2021/12/08 06:09:30;;;;;;;9.52;5.38;;;5.20;99.90;;;;;;5054019;28;20114;-75
2021/12/08 06:11:56;;;;;;;9.13;5.53;;;5.20;99.90;;;;;;5053695;28;20037;-75
2021/12/08 06:14:25;;;;;;;11.40;5.63;;;5.20;99.90;;;;;;5053738;28;20084;-73
2021/12/08 06:16:52;;;;;;;10.30;5.60;;;5.20;99.90;;;;;;5053242;28;20052;-74
2021/12/08 06:19:19;;;;;;;9.07;5.20;;;5.20;99.90;;;;;;5053064;28;20380;-75
2021/12/08 06:21:46;;;;;;;10.93;5.53;;;5.20;99.90;;;;;;5052087;28;20075;-74
2021/12/08 06:24:15;;;;;;;11.40;5.50;;;5.30;99.90;;;;;;5053652;28;20112;-73
2021/12/08 06:26:41;;;;;;;9.57;5.32;;;5.30;99.90;;;;;;5053227;28;20040;-75
2021/12/08 06:29:11;;;;;;;8.60;5.22;;;5.30;99.90;;;;;;5053518;28;20044;-74
2021/12/08 06:31:37;;;;;;;9.48;5.10;;;5.30;99.90;;;;;;5053277;28;20041;-74
2021/12/08 06:34:04;;;;;;;10.73;4.68;;;5.30;99.90;;;;;;5052626;28;20057;-75
2021/12/08 06:36:36;;;;;;;8.55;5.10;;;5.30;99.90;;;;;;5052145;28;20041;-75
2021/12/08 06:39:08;;;;;;;8.93;4.45;;;5.30;99.90;;;;;;5053393;28;20037;-74
2021/12/08 06:41:39;;;;;;;8.02;4.32;;;5.30;99.90;;;;;;5053082;28;20047;-75
2021/12/08 06:44:09;;;;;;;10.43;4.32;;;5.30;99.90;;;;;;5053042;28;20043;-75
2021/12/08 06:46:35;;;;;;;10.73;4.28;;;5.30;99.90;;;;;;5052768;28;20040;-75
2021/12/08 06:49:05;;;;;;;9.15;4.30;;;5.30;99.90;;;;;;5051846;28;20047;-75
2021/12/08 06:51:33;;;;;;;8.32;3.97;;;5.30;99.90;;;;;;5036210;28;20062;-75
2021/12/08 06:54:07;;;;;;;11.45;3.58;;;5.20;99.90;;;;;;5052612;28;20049;-75
2021/12/08 06:56:38;;;;;;;7.82;3.60;;;5.30;99.90;;;;;;5052830;28;20043;-74
2021/12/08 06:59:08;;;;;;;6.10;3.75;;;5.20;99.90;;;;;;5052569;28;20051;-75
2021/12/08 07:01:53;;;;;;;10.52;3.42;;;5.20;99.90;;;;;;5052581;28;20094;-75
2021/12/08 07:04:35;;;;;;;9.60;3.45;;;5.20;99.90;;;;;;5052895;28;20443;-75
2021/12/08 07:07:12;;;;;;;6.95;3.47;;;5.20;99.90;;;;;;5052491;28;20475;-75
2021/12/08 07:09:49;;;;;;;7.80;3.20;;;5.20;99.90;;;;;;5052323;28;20056;-75
2021/12/08 07:12:20;;;;;;;7.78;3.10;;;5.20;99.90;;;;;;5052718;28;20056;-75
2021/12/08 07:15:05;;;;;;;12.10;2.95;;;5.20;99.90;;;;;;5052543;28;20041;-75
2021/12/08 07:17:36;;;;;;;6.80;2.95;;;5.20;99.90;;;;;;5052281;28;20086;-75
2021/12/08 07:20:17;;;;;;;9.45;2.95;;;5.20;99.90;;;;;;5051605;28;20482;-75
2021/12/08 07:22:47;;;;;;;6.50;2.97;;;5.20;99.90;;;;;;5035915;28;20483;-75
2021/12/08 07:25:17;;;;;;;8.57;2.92;;;5.20;99.90;;;;;;5052561;28;20379;-75
2021/12/08 07:27:42;;;;;;;;;;;5.20;99.90;;;;;;5036037;28;20041;-75
2021/12/08 07:30:16;;;;;;;7.68;2.63;;;5.20;99.90;;;;;;5052217;28;19916;-75
2021/12/08 07:32:42;;;;;;;8.27;2.63;;;5.20;99.90;;;;;;5035072;28;20052;-75
2021/12/08 07:35:15;;;;;;;9.40;3.42;;;5.20;99.90;;;;;;5052411;28;20040;-74
2021/12/08 07:37:41;;;;;;;9.15;2.67;;;5.20;99.90;;;;;;5052120;28;20091;-75
2021/12/08 07:40:09;;;;;;;6.47;2.53;;;5.20;99.90;;;;;;5052036;28;20037;-75
2021/12/08 07:42:44;;;;;;;12.07;3.15;;;5.20;99.90;;;;;;5051631;28;20041;-75
2021/12/08 07:45:16;;;;;;;10.00;2.97;;;5.30;99.90;;;;;;5051942;28;20083;-75
2021/12/08 07:47:42;;;;;;;6.45;2.50;;;5.20;99.90;;;;;;5053865;28;20103;-75
2021/12/08 07:50:37;;;;;;;11.98;2.95;;;5.20;99.90;;;;;;5056577;28;20052;-75
2021/12/08 07:53:05;;;;;;;8.32;2.80;;;5.20;99.90;;;;;;5056033;28;20044;-74
2021/12/08 07:55:36;;;;;;;9.30;2.55;;;5.20;99.90;;;;;;5055858;28;20033;-75
2021/12/08 07:58:09;;;;;;;5.35;2.50;;;5.20;99.90;;;;;;5039222;28;20049;-74
2021/12/08 08:00:39;;;;;;;9.88;2.65;;;5.20;99.90;;;;;;5055683;28;20402;-75
2021/12/08 08:03:07;;;;;;;9.38;2.90;;;5.20;99.90;;;;;;5055897;28;20060;-75
2021/12/08 08:05:34;;;;;;;7.18;2.60;;;5.20;99.90;;;;;;5055939;28;20037;-74
2021/12/08 08:08:04;;;;;;;10.50;2.80;;;5.20;99.90;;;;;;5055685;28;20041;-74
2021/12/08 08:10:42;;;;;;;5.68;2.20;;;5.20;99.90;;;;;;5056060;28;20479;-74
2021/12/08 08:13:10;;;;;;;8.10;2.88;;;5.20;99.90;;;;;;5055832;28;20091;-74
2021/12/08 08:15:43;;;;;;;7.53;2.60;;;5.10;99.90;;;;;;5055874;28;20135;-74
2021/12/08 08:18:11;;;;;;;9.18;2.20;;;5.20;99.90;;;;;;5055589;28;20167;-76
2021/12/08 08:20:44;;;;;;;12.57;2.42;;;5.20;99.90;;;;;;5055217;28;20084;-75
2021/12/08 08:23:10;;;;;;;8.13;2.10;;;5.20;99.90;;;;;;5055698;28;20040;-74
2021/12/08 08:25:40;;;;;;;8.63;2.05;;;5.20;99.90;;;;;;5055833;28;20391;-75
2021/12/08 08:28:06;;;;;;;9.65;2.28;;;5.30;99.90;;;;;;5055634;28;20106;-74
2021/12/08 08:30:40;;;;;;;9.63;2.78;;;5.30;99.90;;;;;;5055259;28;20433;-75
2021/12/08 08:33:06;;;;;;;11.13;2.60;;;5.30;99.90;;;;;;5054599;28;20128;-73
2021/12/08 08:35:47;;;;;;;9.93;2.70;;;5.40;99.90;;;;;;5055066;28;20045;-74
2021/12/08 08:38:28;;;;;;;6.63;2.28;;;5.30;99.90;;;;;;5054784;28;20379;-74
2021/12/08 08:41:02;;;;;;;8.70;2.63;;;5.40;99.90;;;;;;5055403;28;20051;-74
2021/12/08 08:43:28;;;;;;;8.70;2.42;;;5.40;99.90;;;;;;5054519;28;20364;-74
2021/12/08 08:45:58;;;;;;;8.90;2.30;;;5.40;99.90;;;;;;5055409;28;20124;-73
2021/12/08 08:48:34;;;;;;;;;;;5.40;99.90;;;;;;5055784;28;20040;-73
2021/12/08 08:51:02;;;;;;;9.18;2.40;;;5.40;99.90;;;;;;5054630;28;20367;-74
2021/12/08 08:53:34;;;;;;;9.88;2.13;;;5.40;99.90;;;;;;5055092;28;20033;-75
2021/12/08 08:56:16;;;;;;;9.95;2.80;;;5.40;99.90;;;;;;5054577;28;20049;-74
2021/12/08 08:58:46;;;;;;;6.95;2.20;;;5.40;99.90;;;;;;5038009;28;20050;-74
2021/12/08 09:01:29;;;;;;;8.50;2.47;;;5.50;99.90;;;;;;5054804;28;20130;-75
2021/12/08 09:04:04;;;;;;;12.10;2.60;;;5.50;99.90;;;;;;5054541;28;20055;-75
2021/12/08 09:06:35;;;;;;;12.85;2.42;;;5.50;99.90;;;;;;5054556;28;20053;-74
2021/12/08 09:09:06;;;;;;;11.60;2.58;;;5.60;99.90;;;;;;5038922;28;20044;-75
2021/12/08 09:11:43;;;;;;;14.55;2.55;;;5.70;99.90;;;;;;5054853;28;20056;-75
2021/12/08 09:14:24;;;;;;;8.60;2.28;;;5.70;99.90;;;;;;5054857;28;20052;-76
2021/12/08 09:17:11;;;;;;;9.32;2.20;;;5.70;99.90;;;;;;5054087;28;20045;-75
2021/12/08 09:19:44;;;;;;;9.80;2.92;;;5.70;99.90;;;;;;5054335;28;20041;-75
2021/12/08 09:22:22;;;;;;;8.23;2.90;;;5.70;99.90;;;;;;5038243;28;20037;-75
2021/12/08 09:24:59;;;;;;;9.15;2.45;;;5.70;99.90;;;;;;5037813;28;20049;-76
2021/12/08 09:27:35;;;;;;;10.55;2.97;;;5.60;99.90;;;;;;5050610;28;20549;-75
2021/12/08 09:30:44;;;;;;;7.80;2.17;;;5.60;99.90;;;;;;5051684;28;20086;-75
2021/12/08 09:33:15;;;;;;;8.95;2.55;;;5.60;99.90;;;;;;5047055;28;20048;-75
2021/12/08 09:35:49;;;;;;;11.68;2.90;;;5.70;99.90;;;;;;5053603;28;20048;-74
2021/12/08 09:38:23;;;;;;;11.35;2.53;;;5.60;99.90;;;;;;5053572;28;20421;-74
2021/12/08 09:40:57;;;;;;;9.10;2.38;;;5.60;99.90;;;;;;5053845;28;20076;-74
2021/12/08 09:43:33;;;;;;;9.70;3.30;;;5.70;99.90;;;;;;5051249;28;20041;-74
2021/12/08 09:46:14;;;;;;;11.45;3.65;;;5.60;99.90;;;;;;5053125;28;20033;-74
2021/12/08 09:48:43;;;;;;;13.63;3.97;;;5.70;99.90;;;;;;5044170;28;20079;-75
2021/12/08 09:51:12;;;;;;;12.45;3.83;;;5.70;99.90;;;;;;5052882;28;20549;-74
2021/12/08 09:53:38;;;;;;;10.98;3.35;;;5.70;99.90;;;;;;5053664;28;20051;-74
2021/12/08 09:56:05;;;;;;;8.27;2.55;;;5.70;99.90;;;;;;5053975;28;20049;-74
2021/12/08 09:58:31;;;;;;;10.43;2.97;;;5.70;99.90;;;;;;5053567;28;20048;-75
2021/12/08 10:00:59;;;;;;;11.77;2.83;;;5.70;99.90;;;;;;5053656;28;20092;-74
2021/12/08 10:03:26;;;;;;;9.73;3.03;;;5.70;99.90;;;;;;5036887;28;20057;-74
2021/12/08 10:05:52;;;;;;;8.95;2.60;;;5.80;99.90;;;;;;5052418;28;20036;-73
2021/12/08 10:08:18;;;;;;;12.65;2.75;;;5.80;99.90;;;;;;5053110;28;20041;-74
2021/12/08 10:10:45;;;;;;;14.27;4.07;;;5.80;99.90;;;;;;5052583;28;20472;-74
2021/12/08 10:13:12;;;;;;;14.52;3.10;;;5.80;99.90;;;;;;5052521;28;20037;-73
2021/12/08 10:15:38;;;;;;;13.23;3.42;;;5.80;99.90;;;;;;5053008;28;20037;-73
2021/12/08 10:18:05;;;;;;;13.63;3.28;;;5.90;99.90;;;;;;5052340;28;20085;-75
2021/12/08 10:20:43;;;;;;;9.23;2.65;;;5.90;99.90;;;;;;5052552;28;20044;-73
2021/12/08 10:23:23;;;;;;;11.30;2.70;;;6.00;99.90;;;;;;5052742;28;20441;-75
2021/12/08 10:26:05;;;;;;;11.23;2.83;;;6.10;99.90;;;;;;5053120;28;20530;-74
2021/12/08 10:28:40;;;;;;;11.30;2.92;;;6.30;99.90;;;;;;5036548;28;20127;-74
2021/12/08 10:31:09;;;;;;;14.15;2.92;;;6.60;99.90;;;;;;5051948;28;20094;-74
2021/12/08 10:36:51;;;;;;;10.52;2.65;;;6.80;99.90;;;;;;5052408;28;20099;-75
2021/12/08 10:39:22;;;;;;;11.98;3.00;;;6.90;99.90;;;;;;5053369;28;20132;-73
2021/12/08 10:41:55;;;;;;;10.10;2.45;;;6.80;99.90;;;;;;5052551;28;20083;-74
2021/12/08 10:44:27;;;;;;;10.32;3.05;;;6.70;99.90;;;;;;5035397;28;20077;-74
2021/12/08 10:46:57;;;;;;;9.85;2.78;;;6.70;99.90;;;;;;5053176;28;20041;-74
2021/12/08 10:54:44;;;;;;;7.72;3.08;;;7.20;99.90;;;;;;5052468;28;20128;-74
2021/12/08 10:57:33;;;;;;;7.93;2.95;;;7.10;99.90;;;;;;5052737;28;20037;-73
2021/12/08 11:00:12;;;;;;;9.97;2.80;;;7.00;99.90;;;;;;5036014;28;20040;-73
2021/12/08 11:02:49;;;;;;;9.07;3.03;;;6.90;99.90;;;;;;5068378;28;20051;-73
2021/12/08 11:05:24;;;;;;;8.93;2.90;;;6.80;99.90;;;;;;5051480;28;20131;-74
2021/12/08 11:08:23;;;;;;;8.30;2.92;;;6.80;99.90;;;;;;5052984;28;20048;-74
2021/12/08 11:11:01;;;;;;;9.63;2.80;;;6.80;99.90;;;;;;5032710;28;20046;-74
2021/12/08 11:13:33;;;;;;;9.77;3.08;;;6.90;99.90;;;;;;5040789;28;20131;-75
2021/12/08 11:16:06;;;;;;;10.25;3.30;;;6.80;99.90;;;;;;5053023;28;20124;-73
2021/12/08 11:18:39;;;;;;;6.80;3.17;;;6.80;99.90;;;;;;5051523;28;20045;-73
2021/12/08 11:21:18;;;;;;;8.50;2.95;;;6.70;99.90;;;;;;5050906;28;20037;-73
2021/12/08 11:23:46;;;;;;;11.77;3.08;;;6.70;99.90;;;;;;5051695;28;20049;-73
2021/12/08 11:26:29;;;;;;;10.65;3.70;;;6.80;99.90;;;;;;5052082;28;20044;-73
2021/12/08 11:29:14;;;;;;;11.57;3.45;;;6.70;99.90;;;;;;5050995;28;20040;-74
2021/12/08 11:31:44;;;;;;;6.53;3.13;;;6.70;99.90;;;;;;5052466;28;20040;-73
2021/12/08 11:34:25;;;;;;;12.80;2.83;;;6.60;99.90;;;;;;5051129;28;20138;-73
2021/12/08 11:36:59;;;;;;;9.68;2.83;;;6.60;99.90;;;;;;5052872;28;20364;-73
2021/12/08 11:39:36;;;;;;;8.95;2.55;;;6.60;99.90;;;;;;5051720;28;20037;-75
2021/12/08 11:42:06;;;;;;;9.75;2.50;;;6.50;99.90;;;;;;5035737;28;20040;-74
2021/12/08 11:44:36;;;;;;;9.75;2.42;;;6.40;99.90;;;;;;5051717;28;20052;-75
2021/12/08 11:47:12;;;;;;;8.77;2.50;;;6.40;99.90;;;;;;5034790;28;20486;-73
2021/12/08 11:49:46;;;;;;;7.75;2.38;;;6.40;99.90;;;;;;5062954;28;20044;-75
2021/12/08 11:52:18;;;;;;;10.57;2.72;;;6.30;99.90;;;;;;5035313;28;20051;-74
2021/12/08 11:55:03;;;;;;;9.52;2.60;;;6.30;99.90;;;;;;5032045;28;20483;-74
2021/12/08 11:57:39;;;;;;;10.95;2.65;;;6.40;99.90;;;;;;5031791;28;20049;-73
2021/12/08 12:00:19;;;;;;;8.07;2.70;;;6.40;99.90;;;;;;5039836;28;20122;-73
2021/12/08 12:03:08;;;;;;;10.68;3.03;;;6.40;99.90;;;;;;5052198;28;20045;-73
2021/12/08 12:05:55;;;;;;;7.38;2.47;;;6.40;99.90;;;;;;5052003;28;20097;-75
2021/12/08 12:08:22;;;;;;;12.98;2.80;;;6.30;99.90;;;;;;5051498;28;20057;-75
2021/12/08 12:11:01;;;;;;;9.77;2.72;;;6.30;99.90;;;;;;5052017;28;20368;-74
2021/12/08 12:13:27;;;;;;;10.23;3.23;;;6.30;99.90;;;;;;5047360;28;20045;-75
2021/12/08 12:15:53;;;;;;;11.25;3.00;;;6.30;99.90;;;;;;5034410;28;20040;-73
2021/12/08 12:18:22;;;;;;;11.50;2.42;;;6.30;99.90;;;;;;5050776;28;20049;-74
2021/12/08 12:20:56;;;;;;;9.98;3.20;;;6.30;99.90;;;;;;5051039;28;20037;-75
2021/12/08 12:23:49;;;;;;;12.73;3.90;;;6.20;99.90;;;;;;5051792;28;20133;-75
2021/12/08 12:26:24;;;;;;;10.63;3.08;;;6.20;99.90;;;;;;5056139;28;20514;-74
2021/12/08 12:29:05;;;;;;;9.02;2.90;;;6.30;99.90;;;;;;5051470;28;20090;-75
2021/12/08 12:31:36;;;;;;;9.38;2.80;;;6.20;99.90;;;;;;5051619;28;20041;-75
2021/12/08 12:34:02;;;;;;;14.13;3.20;;;6.20;99.90;;;;;;5034167;28;20045;-75
2021/12/08 12:36:34;;;;;;;9.05;2.42;;;6.20;99.90;;;;;;5055328;28;20130;-74
2021/12/08 12:39:10;;;;;;;15.60;4.85;;;6.20;99.90;;;;;;5055186;28;20048;-74
2021/12/08 12:41:37;;;;;;;13.68;3.83;;;6.20;99.90;;;;;;5052459;28;20048;-75
2021/12/08 12:44:17;;;;;;;14.00;4.47;;;6.20;99.90;;;;;;5035353;28;20057;-76
2021/12/08 12:47:24;;;;;;;13.65;4.40;;;6.20;99.90;;;;;;5035186;28;20510;-74
2021/12/08 12:50:12;;;;;;;12.30;2.53;;;6.20;99.90;;;;;;5035888;28;20474;-74
2021/12/08 12:52:43;;;;;;;9.32;2.17;;;6.20;99.90;;;;;;5055668;28;20076;-74
2021/12/08 12:55:16;;;;;;;11.45;3.13;;;6.20;99.90;;;;;;5054724;28;20048;-76
2021/12/08 12:58:03;;;;;;;7.15;2.20;;;6.20;99.90;;;;;;5055142;28;20044;-75
2021/12/08 13:00:36;;;;;;;9.75;2.78;;;6.20;99.90;;;;;;5054565;28;20401;-74
2021/12/08 13:03:04;;;;;;;11.63;2.58;;;6.20;99.90;;;;;;5054371;28;20033;-75
2021/12/08 13:05:52;;;;;;;9.00;2.47;;;6.20;99.90;;;;;;5054574;28;20045;-76
2021/12/08 13:08:36;;;;;;;13.13;2.85;;;6.20;99.90;;;;;;5054507;28;20041;-74
2021/12/08 13:11:41;;;;;;;9.05;2.80;;;6.20;99.90;;;;;;5055071;28;20040;-77
2021/12/08 13:14:19;;;;;;;11.50;2.70;;;6.20;99.90;;;;;;5053632;28;20084;-74
2021/12/08 13:16:45;;;;;;;9.57;2.88;;;6.20;99.90;;;;;;5054168;28;20426;-74
2021/12/08 13:19:10;;;;;;;9.05;3.00;;;6.20;99.90;;;;;;5054629;28;20070;-75
2021/12/08 13:21:50;;;;;;;9.52;2.78;;;6.30;99.90;;;;;;5054486;28;20052;-75
2021/12/08 13:24:35;;;;;;;12.10;2.65;;;6.30;99.90;;;;;;5037722;28;20041;-75
2021/12/08 13:27:11;;;;;;;12.68;2.70;;;6.30;99.90;;;;;;5054380;28;20128;-74
2021/12/08 13:29:46;;;;;;;13.23;3.53;;;6.30;99.90;;;;;;5037388;28;20547;-74
2021/12/08 13:32:15;;;;;;;8.55;3.20;;;6.30;99.90;;;;;;5054293;28;20090;-75
2021/12/08 13:34:57;;;;;;;8.57;2.85;;;6.30;99.90;;;;;;5053276;28;20052;-75
2021/12/08 13:37:29;;;;;;;9.07;2.55;;;6.30;99.90;;;;;;5037493;28;20055;-74
2021/12/08 13:40:07;;;;;;;11.50;2.92;;;6.30;99.90;;;;;;5048601;28;20044;-74
2021/12/08 13:42:47;;;;;;;12.02;2.65;;;6.30;99.90;;;;;;5042368;28;20219;-74
2021/12/08 13:45:14;;;;;;;9.40;2.60;;;6.30;99.90;;;;;;5050105;28;20041;-75
2021/12/08 13:47:42;;;;;;;12.82;2.95;;;6.30;99.90;;;;;;5053339;28;20041;-74
2021/12/08 13:50:19;;;;;;;8.05;2.30;;;6.30;99.90;;;;;;5052522;28;20060;-75
2021/12/08 13:52:57;;;;;;;8.43;2.40;;;6.30;99.90;;;;;;5049431;28;20042;-75
2021/12/08 13:55:28;;;;;;;10.75;2.30;;;6.30;99.90;;;;;;5049856;28;20394;-75
2021/12/08 13:58:04;;;;;;;8.02;2.08;;;6.30;99.90;;;;;;5033097;28;20041;-74
2021/12/08 14:00:38;;;;;;;9.73;2.28;;;6.30;99.90;;;;;;5052416;28;20049;-74